Time;durP1;ratioP1;P1;durP2;ratioP2;P2;SDS_P1;SDS_P2;PMS_P1;PMS_P2;Temp;Humidity;BMP_temperature;BMP_pressure;BME280_temperature;BME280_humidity;BME280_pressure;Samples;Min_cycle;Max_cycle;Signal;HPM_P1;HPM_P2
2021/03/08 00:00:42;;;;;;;12.75;7.20;;;5.20;52.80;;;;;;5013810;28;20457;-69
2021/03/08 00:03:09;;;;;;;12.27;7.28;;;5.20;52.90;;;;;;5013916;28;20025;-69
2021/03/08 00:05:35;;;;;;;16.23;8.32;;;5.10;53.00;;;;;;5031485;28;20044;-70
2021/03/08 00:08:01;;;;;;;13.20;7.72;;;5.10;53.10;;;;;;5031567;28;20092;-69
2021/03/08 00:10:27;;;;;;;16.10;9.00;;;5.00;53.30;;;;;;5032793;28;20041;-69
2021/03/08 00:12:52;;;;;;;23.67;9.10;;;5.00;53.80;;;;;;5034934;28;20075;-69
2021/03/08 00:15:20;;;;;;;15.75;8.73;;;5.00;54.40;;;;;;5034970;28;20034;-70
2021/03/08 00:17:47;;;;;;;15.82;9.32;;;5.00;54.70;;;;;;5030234;28;20601;-69
2021/03/08 00:20:18;;;;;;;17.20;9.35;;;5.00;55.00;;;;;;5035233;28;20033;-69
2021/03/08 00:22:45;;;;;;;18.80;9.85;;;5.00;55.40;;;;;;5034941;28;20040;-69
2021/03/08 00:25:17;;;;;;;17.67;9.23;;;5.00;55.50;;;;;;5035187;28;20047;-69
2021/03/08 00:27:42;;;;;;;15.77;8.15;;;5.00;55.40;;;;;;5034980;28;20022;-69
2021/03/08 00:30:10;;;;;;;22.23;12.82;;;5.10;55.10;;;;;;5034733;28;20033;-69
2021/03/08 00:32:36;;;;;;;19.95;10.02;;;5.10;54.70;;;;;;5034638;28;20070;-69
2021/03/08 00:35:04;;;;;;;11.90;6.72;;;5.10;54.50;;;;;;5034934;28;20048;-69
2021/03/08 00:37:31;;;;;;;12.25;7.88;;;5.10;54.20;;;;;;5034919;28;20072;-69
2021/03/08 00:40:05;;;;;;;13.80;7.68;;;5.10;54.10;;;;;;5034878;28;20048;-69
2021/03/08 00:42:31;;;;;;;13.40;7.32;;;5.10;54.20;;;;;;5017135;28;20030;-69
2021/03/08 00:44:57;;;;;;;13.48;7.75;;;5.10;54.30;;;;;;5032642;28;20037;-69
2021/03/08 00:47:24;;;;;;;11.63;7.25;;;5.10;54.20;;;;;;5033291;28;20454;-69
2021/03/08 00:49:50;;;;;;;11.88;6.68;;;5.10;54.10;;;;;;5034626;28;20028;-69
2021/03/08 00:52:16;;;;;;;12.70;7.07;;;5.10;54.00;;;;;;5034535;28;20033;-69
2021/03/08 00:54:42;;;;;;;11.82;7.43;;;5.10;54.10;;;;;;5034341;28;20022;-69
2021/03/08 00:57:09;;;;;;;12.25;7.22;;;5.10;54.20;;;;;;5034802;28;20164;-70
2021/03/08 00:59:35;;;;;;;9.23;6.00;;;5.00;53.90;;;;;;5034525;28;20103;-70
2021/03/08 01:02:02;;;;;;;12.23;7.13;;;5.00;53.70;;;;;;5034698;28;20036;-69
2021/03/08 01:04:27;;;;;;;13.07;7.65;;;5.00;53.70;;;;;;5034730;28;20371;-70
2021/03/08 01:06:53;;;;;;;17.70;9.25;;;5.00;53.70;;;;;;5034474;28;20036;-69
2021/03/08 01:09:19;;;;;;;15.50;9.15;;;4.90;53.90;;;;;;5034107;28;20040;-68
2021/03/08 01:11:46;;;;;;;14.93;8.70;;;4.90;54.60;;;;;;5034243;28;20041;-69
2021/03/08 01:14:12;;;;;;;14.35;8.77;;;4.90;55.10;;;;;;5034308;28;20025;-69
2021/03/08 01:16:38;;;;;;;14.23;8.68;;;4.90;55.50;;;;;;5012808;28;20032;-69
2021/03/08 01:19:04;;;;;;;17.50;9.50;;;4.90;55.70;;;;;;5014449;28;20022;-69
2021/03/08 01:21:30;;;;;;;16.85;9.35;;;4.90;56.10;;;;;;5013700;28;20026;-69
2021/03/08 01:23:56;;;;;;;18.23;8.55;;;4.90;56.20;;;;;;5021953;28;20033;-69
2021/03/08 01:26:22;;;;;;;16.55;8.90;;;4.90;56.20;;;;;;5034100;28;20021;-69
2021/03/08 01:28:48;;;;;;;18.02;9.75;;;4.90;56.20;;;;;;5034082;28;20096;-68
2021/03/08 01:31:14;;;;;;;15.85;9.60;;;4.90;56.20;;;;;;5025762;28;20021;-69
2021/03/08 01:33:40;;;;;;;15.65;8.63;;;4.90;56.30;;;;;;5016086;28;20068;-68
2021/03/08 01:36:06;;;;;;;16.67;8.75;;;4.90;56.20;;;;;;5033904;28;20060;-69
2021/03/08 01:38:32;;;;;;;14.38;8.48;;;4.90;56.20;;;;;;5033795;28;20497;-69
2021/03/08 01:40:57;;;;;;;16.77;9.57;;;4.90;56.30;;;;;;5033443;28;20036;-68
2021/03/08 01:43:24;;;;;;;14.95;8.98;;;4.90;56.30;;;;;;5032457;28;20030;-69
2021/03/08 01:45:50;;;;;;;14.90;8.68;;;4.90;56.20;;;;;;5033467;28;20048;-68
2021/03/08 01:48:17;;;;;;;16.05;9.30;;;5.00;56.40;;;;;;5033592;28;20030;-68
2021/03/08 01:50:46;;;;;;;15.38;8.73;;;5.00;56.40;;;;;;5032565;28;20030;-69
2021/03/08 01:53:14;;;;;;;14.52;8.75;;;5.00;56.40;;;;;;5033248;28;20063;-69
2021/03/08 01:55:41;;;;;;;15.93;8.23;;;5.00;56.30;;;;;;5032961;28;20021;-69
2021/03/08 01:58:07;;;;;;;13.95;7.93;;;5.10;56.10;;;;;;5033468;28;20033;-69
2021/03/08 02:00:33;;;;;;;15.10;7.57;;;5.10;55.80;;;;;;5031934;28;20111;-69
2021/03/08 02:03:00;;;;;;;15.15;8.35;;;5.10;55.80;;;;;;5033230;28;20031;-69
2021/03/08 02:05:31;;;;;;;13.88;8.73;;;5.20;55.90;;;;;;5033227;28;20025;-69
2021/03/08 02:07:58;;;;;;;13.80;7.85;;;5.20;55.90;;;;;;5033226;28;20061;-68
2021/03/08 02:10:26;;;;;;;16.73;9.00;;;5.20;55.80;;;;;;5032955;28;20096;-69
2021/03/08 02:13:18;;;;;;;11.07;6.88;;;5.20;55.50;;;;;;5033110;28;20040;-71
2021/03/08 02:16:02;;;;;;;13.15;7.28;;;5.30;55.30;;;;;;5030282;28;20030;-68
2021/03/08 02:18:57;;;;;;;14.43;7.93;;;5.30;54.90;;;;;;5012054;28;20029;-69
2021/03/08 02:21:48;;;;;;;11.95;6.70;;;5.20;54.70;;;;;;5013304;28;20041;-69
2021/03/08 02:24:26;;;;;;;15.45;8.13;;;5.20;54.50;;;;;;5013272;28;20026;-69
2021/03/08 02:27:04;;;;;;;14.98;8.15;;;5.20;54.60;;;;;;5030239;28;20025;-69
2021/03/08 02:29:56;;;;;;;13.68;8.10;;;5.10;54.50;;;;;;5032327;28;20026;-69
2021/03/08 02:32:30;;;;;;;12.35;7.55;;;5.00;54.50;;;;;;5032886;28;20021;-69
2021/03/08 02:34:59;;;;;;;21.90;7.93;;;5.00;54.40;;;;;;5032697;28;20021;-68
2021/03/08 02:37:29;;;;;;;12.80;7.32;;;4.90;54.30;;;;;;5032662;28;20024;-69
2021/03/08 02:40:08;;;;;;;11.20;6.70;;;4.90;54.90;;;;;;5031492;28;20095;-68
2021/03/08 02:42:39;;;;;;;11.02;6.60;;;4.90;54.30;;;;;;5032102;28;20390;-68
2021/03/08 02:45:08;;;;;;;10.82;6.00;;;4.80;54.20;;;;;;5032614;28;20032;-69
2021/03/08 02:47:37;;;;;;;15.50;6.70;;;4.80;54.10;;;;;;5032402;28;20068;-69
2021/03/08 02:50:05;;;;;;;12.32;7.05;;;4.70;54.10;;;;;;5032295;28;20381;-69
2021/03/08 02:52:35;;;;;;;15.93;8.45;;;4.60;54.30;;;;;;5031429;28;20387;-69
2021/03/08 02:55:04;;;;;;;14.30;7.88;;;4.60;54.50;;;;;;5031155;28;20094;-69
2021/03/08 02:57:37;;;;;;;9.60;6.05;;;4.60;54.50;;;;;;5032120;28;20104;-69
2021/03/08 03:00:07;;;;;;;11.30;6.57;;;4.50;54.40;;;;;;5032434;28;20052;-69
2021/03/08 03:02:34;;;;;;;10.07;6.47;;;4.50;54.40;;;;;;5032334;28;20034;-69
2021/03/08 03:05:06;;;;;;;12.20;7.22;;;4.50;54.40;;;;;;5032453;28;20116;-69
2021/03/08 03:07:34;;;;;;;10.77;6.22;;;4.40;54.40;;;;;;5032641;28;20107;-69
2021/03/08 03:10:03;;;;;;;12.15;6.65;;;4.40;55.10;;;;;;5032155;28;20049;-70
2021/03/08 03:12:29;;;;;;;15.18;7.43;;;4.40;54.80;;;;;;5032022;28;20037;-70
2021/03/08 03:14:56;;;;;;;10.88;6.75;;;4.30;54.70;;;;;;5014599;28;20501;-69
2021/03/08 03:17:23;;;;;;;11.85;7.30;;;4.30;54.80;;;;;;5016059;28;20364;-68
2021/03/08 03:19:52;;;;;;;13.07;6.60;;;4.40;54.90;;;;;;5011265;28;20030;-68
2021/03/08 03:22:23;;;;;;;11.38;6.43;;;4.40;55.00;;;;;;5012495;28;20034;-68
2021/03/08 03:24:53;;;;;;;12.88;6.78;;;4.30;54.90;;;;;;5012552;28;20110;-68
2021/03/08 03:27:22;;;;;;;17.08;10.23;;;4.40;55.00;;;;;;5012879;28;20030;-69
2021/03/08 03:29:49;;;;;;;17.48;8.52;;;4.30;54.90;;;;;;5012433;28;20053;-69
2021/03/08 03:32:15;;;;;;;14.20;7.68;;;4.40;55.00;;;;;;5012451;28;20030;-69
2021/03/08 03:34:44;;;;;;;10.07;5.75;;;4.30;55.00;;;;;;5012321;28;20105;-69
2021/03/08 03:37:12;;;;;;;12.23;7.10;;;4.30;54.90;;;;;;5012103;28;20499;-69
2021/03/08 03:39:37;;;;;;;10.60;6.72;;;4.30;55.10;;;;;;5012130;28;20030;-69
2021/03/08 03:42:03;;;;;;;9.48;5.60;;;4.30;55.20;;;;;;5010862;28;20084;-69
2021/03/08 03:44:33;;;;;;;13.30;8.48;;;4.30;55.30;;;;;;5026464;28;20394;-68
2021/03/08 03:46:59;;;;;;;13.68;8.15;;;4.30;55.90;;;;;;5035858;28;20057;-68
2021/03/08 03:49:25;;;;;;;17.83;8.85;;;4.20;56.20;;;;;;5035551;28;20517;-69
2021/03/08 03:51:51;;;;;;;12.80;7.47;;;4.20;56.60;;;;;;5035751;28;20057;-69
2021/03/08 03:54:17;;;;;;;10.80;5.90;;;4.20;56.60;;;;;;5035766;28;20025;-69
2021/03/08 03:56:50;;;;;;;10.75;6.30;;;4.30;56.40;;;;;;5034366;28;20068;-69
2021/03/08 03:59:24;;;;;;;11.27;6.85;;;4.30;56.40;;;;;;5035323;28;20046;-69
2021/03/08 04:01:55;;;;;;;12.38;7.45;;;4.30;56.40;;;;;;5015838;28;20060;-69
2021/03/08 04:04:44;;;;;;;12.32;6.78;;;4.30;56.30;;;;;;5015830;28;20026;-69
2021/03/08 04:07:10;;;;;;;12.60;7.97;;;4.40;56.30;;;;;;5015667;28;20034;-69
2021/03/08 04:09:38;;;;;;;16.23;8.40;;;4.40;56.40;;;;;;5033346;28;20028;-69
2021/03/08 04:12:10;;;;;;;17.02;8.60;;;4.50;56.60;;;;;;5035315;28;20471;-69
2021/03/08 04:14:37;;;;;;;13.30;7.75;;;4.50;56.50;;;;;;5035070;28;20151;-68
2021/03/08 04:17:04;;;;;;;14.23;8.35;;;4.60;56.40;;;;;;5021800;28;20029;-69
2021/03/08 04:19:32;;;;;;;16.33;7.13;;;4.70;56.30;;;;;;5015400;28;20109;-69
2021/03/08 04:22:03;;;;;;;12.80;7.78;;;4.80;56.10;;;;;;5015397;28;20030;-69
2021/03/08 04:24:35;;;;;;;13.10;6.38;;;4.90;56.00;;;;;;5015575;28;20185;-68
2021/03/08 04:27:05;;;;;;;10.98;6.97;;;5.00;55.90;;;;;;5015257;28;20152;-69
2021/03/08 04:29:34;;;;;;;9.75;6.05;;;5.00;55.70;;;;;;5021191;28;20470;-69
2021/03/08 04:32:02;;;;;;;11.63;7.38;;;5.10;55.50;;;;;;5034795;28;20029;-69
2021/03/08 04:34:30;;;;;;;9.02;6.18;;;5.10;55.30;;;;;;5034904;28;20022;-68
2021/03/08 04:36:58;;;;;;;10.48;6.10;;;5.20;55.20;;;;;;5034794;28;20112;-69
2021/03/08 04:39:26;;;;;;;11.07;6.65;;;5.20;54.80;;;;;;5017040;28;20029;-69
2021/03/08 04:41:53;;;;;;;11.48;6.38;;;5.20;54.70;;;;;;5034710;28;20029;-69
2021/03/08 04:44:19;;;;;;;10.55;5.72;;;5.20;54.50;;;;;;5034965;28;20048;-69
2021/03/08 04:46:46;;;;;;;11.73;6.65;;;5.20;54.40;;;;;;5034734;28;20080;-69
2021/03/08 04:49:12;;;;;;;11.18;7.18;;;5.10;54.20;;;;;;5035174;28;20526;-69
2021/03/08 04:51:41;;;;;;;13.57;7.63;;;5.10;54.20;;;;;;5034785;28;20112;-69
2021/03/08 04:54:07;;;;;;;14.50;8.13;;;5.00;54.20;;;;;;5034674;28;20013;-69
2021/03/08 04:56:34;;;;;;;13.95;6.97;;;5.00;54.20;;;;;;5034578;28;20100;-69
2021/03/08 04:59:02;;;;;;;11.75;6.97;;;4.90;54.20;;;;;;5034113;28;20036;-69
2021/03/08 05:01:33;;;;;;;14.13;6.75;;;4.90;54.20;;;;;;5034358;28;20061;-68
2021/03/08 05:03:59;;;;;;;9.25;6.00;;;4.90;54.30;;;;;;5034293;28;20033;-68
2021/03/08 05:06:28;;;;;;;11.25;6.60;;;4.80;54.20;;;;;;5034146;28;20052;-68
2021/03/08 05:08:55;;;;;;;24.90;13.20;;;4.80;54.20;;;;;;5034182;28;20116;-69
2021/03/08 05:11:20;;;;;;;27.13;13.68;;;4.80;54.30;;;;;;5032647;28;20454;-68
2021/03/08 05:13:49;;;;;;;17.23;9.00;;;4.70;54.30;;;;;;5033040;28;20053;-69
2021/03/08 05:16:17;;;;;;;22.73;9.80;;;4.70;54.40;;;;;;5033941;28;20438;-68
2021/03/08 05:18:45;;;;;;;13.02;8.15;;;4.70;54.40;;;;;;5035032;28;20022;-68
2021/03/08 05:21:15;;;;;;;12.73;7.78;;;4.60;54.50;;;;;;5035093;28;20030;-69
2021/03/08 05:23:45;;;;;;;13.48;7.25;;;4.60;54.50;;;;;;5033787;28;20032;-69
2021/03/08 05:26:12;;;;;;;11.82;6.90;;;4.50;54.50;;;;;;5034897;28;20033;-68
2021/03/08 05:28:38;;;;;;;12.02;6.43;;;4.50;54.40;;;;;;5033668;28;20029;-69
2021/03/08 05:31:05;;;;;;;10.90;6.60;;;4.50;54.40;;;;;;5034607;28;20022;-69
2021/03/08 05:33:32;;;;;;;16.48;7.40;;;4.40;54.60;;;;;;5045975;28;20100;-69
2021/03/08 05:35:59;;;;;;;14.75;7.35;;;4.30;54.90;;;;;;5053225;28;20439;-69
2021/03/08 05:38:30;;;;;;;16.10;8.25;;;4.30;54.90;;;;;;5035889;28;20082;-69
2021/03/08 05:41:05;;;;;;;16.95;7.03;;;4.20;55.30;;;;;;5043271;28;20477;-68
2021/03/08 05:43:35;;;;;;;12.68;7.50;;;4.20;55.40;;;;;;5034175;28;20025;-69
2021/03/08 05:46:03;;;;;;;11.32;6.45;;;4.20;55.40;;;;;;5034668;28;20360;-68
2021/03/08 05:48:50;;;;;;;12.30;7.63;;;4.10;55.30;;;;;;5033377;28;20104;-68
2021/03/08 05:51:37;;;;;;;12.02;7.45;;;4.10;55.40;;;;;;5034547;28;20364;-69
2021/03/08 05:54:21;;;;;;;16.55;8.02;;;4.10;55.70;;;;;;5034411;28;20021;-69
2021/03/08 05:56:47;;;;;;;19.75;8.30;;;4.10;55.90;;;;;;5034017;28;20029;-69
2021/03/08 05:59:31;;;;;;;15.05;8.77;;;4.00;56.10;;;;;;5034134;28;20470;-68
2021/03/08 06:02:08;;;;;;;18.77;7.90;;;4.00;56.50;;;;;;5034672;28;20356;-69
2021/03/08 06:04:55;;;;;;;13.77;7.22;;;4.00;56.40;;;;;;5032925;28;20029;-69
2021/03/08 06:07:42;;;;;;;10.60;6.40;;;4.00;56.40;;;;;;5033609;28;20475;-69
2021/03/08 06:10:12;;;;;;;14.32;7.55;;;4.00;56.30;;;;;;5034087;28;20104;-68
2021/03/08 06:12:40;;;;;;;12.55;6.68;;;4.00;56.40;;;;;;5033889;28;20076;-68
2021/03/08 06:15:11;;;;;;;13.07;6.63;;;4.00;56.40;;;;;;5034095;28;20020;-68
2021/03/08 06:17:38;;;;;;;13.35;6.53;;;4.10;56.40;;;;;;5033924;28;20030;-69
2021/03/08 06:20:08;;;;;;;13.63;7.55;;;4.10;56.40;;;;;;5033892;28;20033;-69
2021/03/08 06:22:35;;;;;;;16.77;7.82;;;4.10;56.40;;;;;;5033467;28;20029;-69
2021/03/08 06:25:04;;;;;;;17.02;8.27;;;4.20;56.40;;;;;;5033668;28;20029;-68
2021/03/08 06:27:30;;;;;;;14.93;8.05;;;4.20;56.50;;;;;;5032439;28;20033;-69
2021/03/08 06:29:56;;;;;;;16.73;7.50;;;4.30;56.60;;;;;;5033380;28;20095;-68
2021/03/08 06:32:23;;;;;;;21.55;7.70;;;4.30;56.50;;;;;;5032408;28;20028;-69
2021/03/08 06:34:49;;;;;;;14.57;7.15;;;4.40;56.60;;;;;;5033659;28;20025;-69
2021/03/08 06:37:15;;;;;;;17.45;8.32;;;4.50;56.50;;;;;;5033089;28;20033;-69
2021/03/08 06:39:46;;;;;;;24.85;9.00;;;4.50;56.40;;;;;;5033760;28;20493;-69
2021/03/08 06:42:15;;;;;;;18.95;8.13;;;4.50;56.30;;;;;;5033544;28;20032;-69
2021/03/08 06:44:44;;;;;;;23.38;8.88;;;4.60;56.30;;;;;;5032516;28;20495;-69
2021/03/08 06:47:10;;;;;;;25.40;8.43;;;4.70;56.20;;;;;;5033172;28;20045;-69
2021/03/08 06:49:36;;;;;;;16.30;8.63;;;4.70;56.10;;;;;;5033281;28;20029;-69
2021/03/08 06:52:10;;;;;;;14.27;7.63;;;4.80;55.90;;;;;;5033300;28;20037;-69
2021/03/08 06:54:37;;;;;;;19.43;8.43;;;4.80;55.80;;;;;;5033130;28;20159;-69
2021/03/08 06:57:25;;;;;;;17.27;7.35;;;4.90;55.60;;;;;;5033157;28;20095;-69
2021/03/08 06:59:59;;;;;;;16.50;7.47;;;5.00;55.40;;;;;;5033001;28;20049;-69
2021/03/08 07:02:48;;;;;;;12.10;7.55;;;5.00;55.40;;;;;;5033244;28;20021;-69
2021/03/08 07:05:23;;;;;;;14.30;7.97;;;5.10;55.30;;;;;;5031948;28;20087;-69
2021/03/08 07:07:53;;;;;;;14.52;8.80;;;5.20;55.30;;;;;;5032697;28;20084;-69
2021/03/08 07:10:38;;;;;;;13.20;8.25;;;5.20;55.00;;;;;;5031803;28;20021;-69
2021/03/08 07:13:08;;;;;;;16.05;8.68;;;5.30;54.80;;;;;;5033114;28;20486;-69
2021/03/08 07:15:57;;;;;;;14.52;7.97;;;5.40;54.70;;;;;;5033085;28;20096;-69
2021/03/08 07:18:24;;;;;;;15.93;8.10;;;5.40;54.60;;;;;;5032919;28;20482;-69
2021/03/08 07:21:15;;;;;;;18.17;7.63;;;5.50;54.70;;;;;;5032137;28;20028;-69
2021/03/08 07:23:42;;;;;;;15.40;8.63;;;5.60;54.70;;;;;;5032818;28;20022;-71
2021/03/08 07:26:16;;;;;;;17.35;8.70;;;5.60;54.50;;;;;;5032865;28;20018;-69
2021/03/08 07:28:42;;;;;;;;;;;5.70;54.40;;;;;;5032983;28;20025;-70
2021/03/08 07:31:08;;;;;;;12.23;7.40;;;5.80;54.50;;;;;;5032963;28;19919;-69
2021/03/08 07:33:35;;;;;;;18.13;8.13;;;5.90;54.30;;;;;;5032445;28;20029;-69
2021/03/08 07:36:01;;;;;;;17.67;8.75;;;6.00;54.10;;;;;;5015127;28;20036;-68
2021/03/08 07:38:35;;;;;;;15.60;9.18;;;6.00;53.90;;;;;;5032851;28;20113;-70
2021/03/08 07:41:18;;;;;;;13.90;8.48;;;6.10;53.70;;;;;;5032807;28;20509;-68
2021/03/08 07:43:47;;;;;;;18.10;8.45;;;6.20;53.40;;;;;;5032512;28;20030;-69
2021/03/08 07:46:26;;;;;;;14.55;7.63;;;6.20;53.30;;;;;;5031129;28;20105;-70
2021/03/08 07:48:54;;;;;;;24.15;10.25;;;6.30;53.30;;;;;;5032735;28;20060;-69
2021/03/08 07:51:20;;;;;;;13.10;8.45;;;6.40;53.00;;;;;;5032749;28;20021;-69
2021/03/08 07:53:45;;;;;;;19.83;9.07;;;6.50;52.80;;;;;;5032615;28;20378;-70
2021/03/08 07:56:11;;;;;;;19.83;9.73;;;6.50;52.80;;;;;;5032642;28;20379;-70
2021/03/08 07:58:38;;;;;;;17.02;9.38;;;6.60;52.70;;;;;;5015627;28;20022;-70
2021/03/08 08:01:09;;;;;;;21.52;9.02;;;6.60;52.30;;;;;;5013716;28;20072;-70
2021/03/08 08:03:38;;;;;;;16.50;8.98;;;6.70;52.20;;;;;;5031799;28;20036;-70
2021/03/08 08:06:09;;;;;;;11.82;7.90;;;6.70;51.90;;;;;;5015025;28;20024;-69
2021/03/08 08:08:38;;;;;;;12.70;8.23;;;6.80;51.90;;;;;;5033415;28;20022;-69
2021/03/08 08:11:06;;;;;;;14.55;9.40;;;6.90;51.80;;;;;;5030111;28;20048;-70
2021/03/08 08:13:38;;;;;;;14.15;9.00;;;6.90;51.60;;;;;;5031696;28;20032;-70
2021/03/08 08:16:08;;;;;;;13.48;8.80;;;7.00;51.50;;;;;;5032450;28;20029;-69
2021/03/08 08:18:42;;;;;;;15.55;9.05;;;7.00;51.50;;;;;;5032474;28;20478;-70
2021/03/08 08:21:17;;;;;;;15.30;8.90;;;7.00;51.20;;;;;;5030974;28;20029;-70
2021/03/08 08:23:45;;;;;;;16.17;9.70;;;7.10;51.10;;;;;;5032352;28;20475;-70
2021/03/08 08:26:17;;;;;;;17.35;8.38;;;7.20;51.30;;;;;;5032229;28;20434;-70
2021/03/08 08:28:45;;;;;;;16.70;8.70;;;7.20;51.10;;;;;;5032071;28;20385;-70
2021/03/08 08:31:11;;;;;;;19.25;9.77;;;7.30;51.10;;;;;;5032934;28;20132;-70
2021/03/08 08:33:37;;;;;;;19.88;9.60;;;7.30;51.20;;;;;;5035879;28;20017;-70
2021/03/08 08:36:24;;;;;;;15.90;9.27;;;7.40;51.00;;;;;;5035850;28;20022;-70
2021/03/08 08:38:52;;;;;;;20.85;9.43;;;7.40;50.80;;;;;;5034611;28;20025;-70
2021/03/08 08:41:30;;;;;;;18.52;9.90;;;7.50;50.80;;;;;;5034442;28;20033;-70
2021/03/08 08:44:12;;;;;;;15.50;10.05;;;7.50;50.50;;;;;;5035718;28;20017;-70
2021/03/08 08:46:47;;;;;;;17.95;9.73;;;7.60;50.10;;;;;;5028661;28;20033;-69
2021/03/08 08:49:16;;;;;;;40.50;11.75;;;7.60;50.00;;;;;;5035318;28;20022;-70
2021/03/08 08:51:58;;;;;;;21.02;10.05;;;7.70;50.00;;;;;;5035438;28;20471;-69
2021/03/08 08:54:27;;;;;;;16.40;10.15;;;7.70;49.60;;;;;;5034246;28;20052;-70
2021/03/08 08:57:09;;;;;;;16.33;9.60;;;7.80;49.80;;;;;;5034199;28;20108;-72
2021/03/08 08:59:38;;;;;;;14.90;9.55;;;7.80;49.40;;;;;;5016846;28;20057;-69
2021/03/08 09:02:15;;;;;;;16.50;10.80;;;7.90;49.40;;;;;;5034695;28;20025;-69
2021/03/08 09:04:41;;;;;;;19.40;11.57;;;7.90;49.00;;;;;;5015450;28;20188;-69
2021/03/08 09:07:25;;;;;;;18.98;11.02;;;7.90;48.80;;;;;;5015192;28;20123;-69
2021/03/08 09:09:55;;;;;;;19.73;10.77;;;8.00;48.90;;;;;;5015489;28;20022;-69
2021/03/08 09:12:33;;;;;;;16.48;9.32;;;8.10;48.90;;;;;;5037488;28;20028;-70
2021/03/08 09:15:07;;;;;;;16.63;10.48;;;8.10;48.80;;;;;;5054010;28;20151;-70
2021/03/08 09:17:43;;;;;;;21.95;11.55;;;8.10;48.30;;;;;;5053787;28;20051;-70
2021/03/08 09:20:09;;;;;;;17.08;10.82;;;8.20;48.10;;;;;;5037142;28;20025;-70
2021/03/08 09:22:47;;;;;;;15.50;9.30;;;8.30;48.00;;;;;;5055000;28;20032;-70
2021/03/08 09:25:15;;;;;;;14.55;9.20;;;8.30;48.00;;;;;;5036082;28;20443;-71
2021/03/08 09:27:44;;;;;;;15.60;9.70;;;8.40;48.40;;;;;;5017755;28;20036;-70
2021/03/08 09:30:23;;;;;;;16.95;9.43;;;8.50;48.20;;;;;;5034861;28;20510;-70
2021/03/08 09:32:58;;;;;;;21.17;10.82;;;8.50;48.00;;;;;;5017143;28;20026;-70
2021/03/08 09:35:30;;;;;;;24.25;11.48;;;8.60;47.30;;;;;;5017030;28;20028;-68
2021/03/08 09:38:05;;;;;;;20.38;10.85;;;8.60;47.10;;;;;;5016867;28;20026;-70
2021/03/08 09:40:37;;;;;;;35.67;12.63;;;8.70;46.70;;;;;;5034704;28;20030;-69
2021/03/08 09:43:16;;;;;;;55.47;12.80;;;8.70;46.50;;;;;;5033294;28;20029;-69
2021/03/08 09:45:42;;;;;;;28.80;10.98;;;8.80;46.30;;;;;;5034333;28;20080;-68
2021/03/08 09:48:11;;;;;;;20.33;10.77;;;8.80;46.20;;;;;;5034311;28;20033;-69
2021/03/08 09:50:38;;;;;;;23.58;10.65;;;8.90;45.80;;;;;;5034331;28;20032;-70
2021/03/08 09:53:06;;;;;;;18.27;9.90;;;8.90;45.40;;;;;;5034164;28;20167;-70
2021/03/08 09:55:36;;;;;;;15.23;9.80;;;9.00;45.60;;;;;;5033145;28;20025;-69
2021/03/08 09:58:12;;;;;;;14.23;9.38;;;9.00;45.10;;;;;;5025905;28;20099;-69
2021/03/08 10:00:38;;;;;;;14.45;9.80;;;9.10;45.10;;;;;;5034208;28;20103;-69
2021/03/08 10:03:06;;;;;;;33.33;10.70;;;9.10;44.90;;;;;;5034251;28;20088;-69
2021/03/08 10:05:40;;;;;;;13.93;9.30;;;9.10;44.20;;;;;;5025895;28;20493;-71
2021/03/08 10:08:06;;;;;;;;;;;9.20;44.10;;;;;;4997226;28;20029;-69
2021/03/08 10:10:38;;;;;;;15.90;9.15;;;9.30;45.30;;;;;;4996778;28;19993;-69
2021/03/08 10:13:04;;;;;;;17.75;9.40;;;9.30;44.50;;;;;;5019877;28;20064;-69
2021/03/08 10:15:44;;;;;;;16.23;9.80;;;9.40;44.60;;;;;;5034081;28;20025;-69
2021/03/08 10:18:13;;;;;;;21.33;10.25;;;9.40;44.10;;;;;;5034033;28;20029;-69
2021/03/08 10:20:53;;;;;;;14.18;8.88;;;9.50;44.10;;;;;;5028494;28;20112;-69
2021/03/08 10:23:23;;;;;;;16.98;9.23;;;9.50;43.90;;;;;;5014156;28;20061;-69
2021/03/08 10:25:49;;;;;;;18.13;9.95;;;9.60;43.80;;;;;;5014061;28;20041;-69
2021/03/08 10:28:15;;;;;;;14.65;8.85;;;9.60;43.60;;;;;;5013938;28;20025;-69
2021/03/08 10:30:41;;;;;;;15.63;10.50;;;9.70;43.80;;;;;;5030382;28;20478;-69
2021/03/08 10:33:11;;;;;;;22.27;10.02;;;9.70;43.00;;;;;;5015952;28;20018;-69
2021/03/08 10:35:43;;;;;;;14.27;10.25;;;9.80;43.00;;;;;;5033610;28;20032;-68
2021/03/08 10:38:10;;;;;;;15.77;10.48;;;9.80;42.90;;;;;;5033613;28;20022;-69
2021/03/08 10:40:37;;;;;;;15.68;9.65;;;9.90;42.60;;;;;;5034467;28;20021;-69
2021/03/08 10:43:03;;;;;;;18.88;10.02;;;9.90;42.40;;;;;;5032610;28;20029;-68
2021/03/08 10:45:30;;;;;;;18.35;10.15;;;9.90;42.10;;;;;;5033268;28;20108;-69
2021/03/08 10:48:12;;;;;;;15.82;10.13;;;10.00;41.90;;;;;;5015642;28;20490;-69
2021/03/08 10:50:40;;;;;;;19.02;10.57;;;10.00;41.40;;;;;;5033319;28;20260;-69
2021/03/08 10:53:06;;;;;;;21.13;10.30;;;10.10;41.30;;;;;;5033303;28;20368;-68
2021/03/08 10:55:32;;;;;;;17.65;8.13;;;10.10;41.00;;;;;;5031922;28;20029;-69
2021/03/08 10:57:58;;;;;;;13.57;8.60;;;10.20;41.00;;;;;;5032993;28;20033;-69
2021/03/08 11:00:24;;;;;;;13.65;7.65;;;10.30;40.60;;;;;;5032461;28;20061;-69
2021/03/08 11:02:51;;;;;;;31.27;9.90;;;10.30;40.90;;;;;;5033091;28;20026;-69
2021/03/08 11:05:19;;;;;;;15.27;8.65;;;10.40;40.30;;;;;;5032557;28;20028;-69
2021/03/08 11:07:45;;;;;;;17.65;8.48;;;10.40;40.40;;;;;;5032942;28;20021;-69
2021/03/08 11:10:12;;;;;;;12.32;8.07;;;10.50;40.00;;;;;;5032762;28;20121;-69
2021/03/08 11:12:38;;;;;;;13.68;8.63;;;10.50;39.70;;;;;;5032732;28;20017;-69
2021/03/08 11:15:06;;;;;;;12.20;7.72;;;10.60;39.10;;;;;;5016134;28;20033;-69
2021/03/08 11:17:41;;;;;;;11.77;7.40;;;10.60;38.60;;;;;;5027313;28;20453;-69
2021/03/08 11:20:14;;;;;;;30.20;7.90;;;10.70;38.50;;;;;;5003967;28;20051;-69
2021/03/08 11:23:04;;;;;;;20.33;7.45;;;10.70;38.20;;;;;;5031256;28;20021;-70
2021/03/08 11:25:48;;;;;;;18.35;7.03;;;10.70;38.00;;;;;;5031491;28;20064;-69
2021/03/08 11:28:16;;;;;;;18.60;7.05;;;10.80;37.60;;;;;;5031770;28;20025;-69
2021/03/08 11:30:50;;;;;;;14.48;8.45;;;10.80;37.70;;;;;;5030892;28;20037;-70
2021/03/08 11:33:17;;;;;;;12.85;7.82;;;10.90;37.00;;;;;;5031442;28;20033;-69
2021/03/08 11:35:48;;;;;;;18.05;7.93;;;10.90;36.80;;;;;;5030982;28;20530;-70
2021/03/08 11:38:20;;;;;;;13.38;8.38;;;10.90;37.50;;;;;;5031279;28;20475;-70
2021/03/08 11:40:48;;;;;;;12.82;7.40;;;10.90;36.90;;;;;;5031341;28;20109;-70
2021/03/08 11:43:32;;;;;;;10.40;6.88;;;11.00;36.80;;;;;;5012910;28;20067;-70
2021/03/08 11:45:58;;;;;;;13.50;7.60;;;11.00;37.00;;;;;;5031647;28;20045;-69
2021/03/08 11:48:24;;;;;;;18.30;8.00;;;11.00;36.60;;;;;;5030795;28;20033;-69
2021/03/08 11:50:51;;;;;;;13.05;7.78;;;11.00;36.10;;;;;;5029866;28;20051;-69
2021/03/08 11:53:17;;;;;;;10.27;7.05;;;11.00;36.70;;;;;;5030434;28;20109;-70
2021/03/08 11:55:42;;;;;;;11.05;7.07;;;11.00;36.40;;;;;;5028547;28;20610;-70
2021/03/08 11:58:08;;;;;;;11.90;7.20;;;11.00;35.80;;;;;;5011924;28;20029;-70
2021/03/08 12:00:34;;;;;;;13.30;7.80;;;11.10;35.90;;;;;;5041587;28;20041;-68
2021/03/08 12:03:00;;;;;;;11.38;7.75;;;11.10;35.30;;;;;;5031533;28;20033;-69
2021/03/08 12:05:25;;;;;;;10.73;7.32;;;11.00;34.20;;;;;;5032608;28;20030;-69
2021/03/08 12:07:51;;;;;;;12.05;7.10;;;11.00;34.40;;;;;;5036053;28;20025;-69
2021/03/08 12:10:17;;;;;;;13.07;7.45;;;11.10;35.10;;;;;;5036080;28;20382;-68
2021/03/08 12:12:43;;;;;;;10.18;6.90;;;11.10;34.40;;;;;;5036434;28;20097;-69
2021/03/08 12:15:11;;;;;;;11.45;6.88;;;11.10;34.40;;;;;;5035570;28;20159;-69
2021/03/08 12:17:38;;;;;;;10.20;6.63;;;11.20;34.80;;;;;;5035545;28;20030;-69
2021/03/08 12:20:07;;;;;;;25.02;6.22;;;11.20;34.90;;;;;;5035315;28;20030;-69
2021/03/08 12:22:36;;;;;;;16.65;6.72;;;11.30;35.10;;;;;;5035687;28;20025;-69
2021/03/08 12:25:02;;;;;;;9.82;6.68;;;11.30;34.50;;;;;;5025751;28;20030;-69
2021/03/08 12:27:28;;;;;;;23.38;6.90;;;11.30;33.80;;;;;;5035627;28;20025;-71
2021/03/08 12:29:54;;;;;;;18.25;6.30;;;11.40;33.90;;;;;;5035454;28;20384;-69
2021/03/08 12:32:20;;;;;;;14.40;6.90;;;11.40;34.00;;;;;;5030571;28;20025;-69
2021/03/08 12:34:47;;;;;;;10.32;6.15;;;11.40;33.90;;;;;;5018105;28;20045;-69
2021/03/08 12:37:13;;;;;;;9.93;6.07;;;11.40;33.80;;;;;;5034948;28;20175;-69
2021/03/08 12:39:39;;;;;;;9.60;5.75;;;11.50;33.90;;;;;;5035665;28;20034;-69
2021/03/08 12:42:05;;;;;;;14.30;6.00;;;11.60;33.80;;;;;;5035976;28;20026;-69
2021/03/08 12:44:31;;;;;;;10.52;6.47;;;11.60;33.20;;;;;;5035927;28;20052;-69
2021/03/08 12:46:57;;;;;;;10.30;6.30;;;11.60;33.10;;;;;;5034343;28;20049;-69
2021/03/08 12:49:23;;;;;;;30.00;8.05;;;11.60;32.70;;;;;;5035751;28;20095;-69
2021/03/08 12:51:49;;;;;;;9.10;6.28;;;11.70;32.40;;;;;;5035909;28;20018;-69
2021/03/08 12:54:15;;;;;;;8.27;5.82;;;11.70;32.30;;;;;;5017909;28;20036;-68
2021/03/08 12:56:41;;;;;;;12.52;5.93;;;11.70;32.50;;;;;;5034219;28;20021;-69
2021/03/08 12:59:07;;;;;;;7.70;5.32;;;11.70;32.40;;;;;;5017397;28;20438;-69